Main page
METAR-TAF:

METAR-TAF

Airports :

City of Derry Airport

Derry, Northern Ireland

latitude: 55-03N, longitude: 007-09W, elevation: 9 m

Current weather observation

The report was made 1 hour and 16 minutes ago, at 15:50 UTC
Wind 8 kt from the South/Southwest
Temperature 11°C
Humidity 82%
Pressure 1008 hPa
Visibility 10 km or more
Few clouds at a height of 2000 ft
showers in vicinity

METAR: EGAE 251550Z 21008KT 9999 VCSH FEW020 11/08 Q1008

Time: 18:06 (17:06 UTC)

Forecast

The report was made 3 hours and 11 minutes ago, at 13:55 UTC
Forecast valid from 25 at 15 UTC to 25 at 20 UTC
Wind 11 kt from the Southwest
Visibility 10 km or more
Few clouds at a height of 2000 ft
Scattered clouds at a height of 2500 ft
Temporary
from 25 at 15 UTC to 25 at 20 UTC
Visibility: 7000 m
rain showers

TAF: EGAE 251355Z 2515/2520 23011KT 9999 FEW020 SCT025 TEMPO 2515/2520 7000 SHRA

Weather observations and forecasts of more than 4000 airports (METAR and TAF reports).

The available stations are represented by yellow and red dots on the map.

Hover mouse over dot to see the name of the station.

Then click to see weather observations and forecasts.

To change the map : click on the green buttons with a black cross to zoom in, on the green button with a dash to zoom out, or on the green arrows for adjacent maps.


METAR-TAF: